createdAt,value
2018-07-10T00:00:38.042Z,23.02
2018-07-10T00:03:11.193Z,23.09
2018-07-10T00:04:11.362Z,23.05
2018-07-10T00:05:11.534Z,22.97
2018-07-10T00:06:11.702Z,22.94
2018-07-10T00:07:11.871Z,22.88
2018-07-10T00:08:12.083Z,22.91
2018-07-10T00:09:12.214Z,23.01
2018-07-10T00:10:12.372Z,22.94
2018-07-10T00:11:12.568Z,23.02
2018-07-10T00:12:12.750Z,23.05
2018-07-10T00:13:12.919Z,23.10
2018-07-10T00:14:13.333Z,23.02
2018-07-10T00:15:13.309Z,23.22
2018-07-10T00:16:13.490Z,23.27
2018-07-10T00:17:13.659Z,23.27
2018-07-10T00:18:13.836Z,23.16
2018-07-10T00:19:14.006Z,23.15
2018-07-10T00:20:14.296Z,23.17
2018-07-10T00:21:14.395Z,23.17
2018-07-10T00:22:14.572Z,23.10
2018-07-10T00:23:14.748Z,23.13
2018-07-10T00:24:14.915Z,23.04
2018-07-10T00:25:15.091Z,22.91
2018-07-10T00:26:15.314Z,22.83
2018-07-10T00:27:15.376Z,22.77
2018-07-10T00:28:15.546Z,22.60
2018-07-10T00:29:15.718Z,22.65
2018-07-10T00:30:15.888Z,22.60
2018-07-10T00:31:16.058Z,22.49
2018-07-10T00:32:16.238Z,22.60
2018-07-10T00:33:16.407Z,22.57
2018-07-10T00:34:16.584Z,22.58
2018-07-10T00:35:17.055Z,22.62
2018-07-10T00:36:16.928Z,22.64
2018-07-10T00:37:17.129Z,22.52
2018-07-10T00:38:17.328Z,22.64
2018-07-10T00:39:17.684Z,22.57
2018-07-10T00:40:17.610Z,22.58
2018-07-10T00:41:17.776Z,22.61
2018-07-10T00:42:17.944Z,22.62
2018-07-10T00:43:18.115Z,22.72
2018-07-10T00:44:18.283Z,22.76
2018-07-10T00:45:18.452Z,22.73
2018-07-10T00:46:18.624Z,22.77
2018-07-10T00:47:18.797Z,22.80
2018-07-10T00:48:18.968Z,22.76
2018-07-10T00:49:19.141Z,22.70
2018-07-10T00:50:19.306Z,22.77
2018-07-10T00:51:19.475Z,22.73
2018-07-10T00:52:19.650Z,22.72
2018-07-10T00:53:19.826Z,22.65
2018-07-10T00:54:20.001Z,22.67
2018-07-10T00:55:20.170Z,22.64
2018-07-10T07:21:06.565Z,23.63
2018-07-10T07:22:06.616Z,23.68
2018-07-10T07:23:06.791Z,23.51
2018-07-10T07:24:06.959Z,23.60
2018-07-10T07:25:07.130Z,23.60
2018-07-10T07:26:07.302Z,23.68
2018-07-10T07:27:07.474Z,23.68
2018-07-10T07:28:07.644Z,23.83
2018-07-10T07:29:07.825Z,23.80
2018-07-10T07:30:08.002Z,23.69
2018-07-10T07:31:08.167Z,23.72
2018-07-10T07:32:08.339Z,23.54
2018-07-10T07:33:08.504Z,23.53
2018-07-10T07:34:08.680Z,23.16
2018-07-10T07:35:08.910Z,22.88
2018-07-10T07:36:09.020Z,22.94
2018-07-10T07:37:09.191Z,23.07
2018-07-10T07:38:09.368Z,23.23
2018-07-10T07:39:09.545Z,23.40
2018-07-10T07:40:09.717Z,23.46
2018-07-10T07:41:09.887Z,23.43
2018-07-10T07:42:10.059Z,23.65
2018-07-10T07:43:10.231Z,23.61
2018-07-10T07:44:10.537Z,23.54
2018-07-10T07:45:10.584Z,23.47
2018-07-10T07:46:10.753Z,23.35
2018-07-10T07:47:10.916Z,23.46
2018-07-10T07:48:11.092Z,23.42
2018-07-10T07:49:11.265Z,23.55
2018-07-10T07:50:11.439Z,23.33
2018-07-10T07:51:11.609Z,23.07
2018-07-10T07:52:11.796Z,22.91
2018-07-10T07:53:11.951Z,22.98
2018-07-10T07:54:12.117Z,23.00
2018-07-10T07:55:12.298Z,23.36
2018-07-10T07:56:12.460Z,23.54
2018-07-10T07:57:12.637Z,23.73
2018-07-10T07:58:12.808Z,23.76
2018-07-10T07:59:12.982Z,23.78
2018-07-10T08:00:13.149Z,23.72
2018-07-10T08:01:13.323Z,23.84
2018-07-10T08:02:13.480Z,23.80
2018-07-10T08:03:13.656Z,23.73
2018-07-10T08:04:13.822Z,23.75
2018-07-10T08:05:13.991Z,23.79
2018-07-10T08:06:14.166Z,23.80
2018-07-10T08:07:14.335Z,23.79
2018-07-10T08:08:14.511Z,24.00
2018-07-10T08:09:14.690Z,23.57
2018-07-10T08:10:14.859Z,23.42
2018-07-10T08:11:15.030Z,23.39
2018-07-10T08:12:15.200Z,23.19
2018-07-10T08:13:15.374Z,23.04
2018-07-10T08:14:15.552Z,22.95
2018-07-10T08:15:15.730Z,23.09
2018-07-10T08:16:15.892Z,23.04
2018-07-10T08:17:16.069Z,23.27
2018-07-10T08:18:16.247Z,23.23
2018-07-10T08:19:16.492Z,23.16
2018-07-10T08:20:16.596Z,23.39
2018-07-10T08:21:16.762Z,23.72
2018-07-10T08:22:16.939Z,23.95
2018-07-10T08:23:17.113Z,24.35
2018-07-10T08:24:17.278Z,24.57
2018-07-10T08:25:17.446Z,24.84
2018-07-10T08:26:17.621Z,25.14
2018-07-10T08:27:17.795Z,25.43
2018-07-10T08:28:17.964Z,25.50
2018-07-10T08:29:18.136Z,25.58
2018-07-10T08:30:18.304Z,25.73
2018-07-10T08:31:18.481Z,25.83
2018-07-10T08:32:18.649Z,25.17
2018-07-10T08:33:18.851Z,24.90
2018-07-10T08:34:19.015Z,24.35
2018-07-10T08:35:19.191Z,24.50
2018-07-10T08:36:19.372Z,24.47
2018-07-10T08:37:19.545Z,24.45
2018-07-10T08:38:19.722Z,24.43
2018-07-10T08:39:19.979Z,24.50
2018-07-10T08:40:20.214Z,24.27
2018-07-10T08:41:20.275Z,24.22
2018-07-10T08:42:20.450Z,24.22
2018-07-10T08:43:20.618Z,24.40
2018-07-10T08:44:20.792Z,24.53
2018-07-10T08:45:20.969Z,24.85
2018-07-10T08:46:21.142Z,24.83
2018-07-10T08:47:21.310Z,24.76
2018-07-10T08:48:21.481Z,24.65
2018-07-10T08:49:21.652Z,24.50
2018-07-10T08:50:21.823Z,24.49
2018-07-10T08:51:22.002Z,24.46
2018-07-10T08:52:22.163Z,24.62
2018-07-10T08:53:22.336Z,24.85
2018-07-10T08:54:22.516Z,24.95
2018-07-10T08:55:22.687Z,24.99
2018-07-10T08:56:22.851Z,24.76
2018-07-10T08:57:23.024Z,24.67
2018-07-10T08:58:23.198Z,24.80
2018-07-10T08:59:23.367Z,24.88
2018-07-10T09:00:23.540Z,24.91
2018-07-10T09:01:23.710Z,25.00
2018-07-10T09:02:23.885Z,25.05
2018-07-10T09:03:24.051Z,25.05
2018-07-10T09:04:24.233Z,24.98
2018-07-10T09:05:24.399Z,25.03
2018-07-10T09:06:24.573Z,25.13
2018-07-10T09:07:24.744Z,25.13
2018-07-10T09:08:24.924Z,25.09
2018-07-10T09:09:25.095Z,25.18
2018-07-10T09:10:25.264Z,25.40
2018-07-10T09:11:25.441Z,25.35
2018-07-10T09:12:25.614Z,25.45
2018-07-10T09:13:25.790Z,25.51
2018-07-10T09:14:25.958Z,25.46
2018-07-10T09:15:26.126Z,25.61
2018-07-10T09:16:26.296Z,25.61
2018-07-10T09:17:26.468Z,25.75
2018-07-10T09:18:26.637Z,25.88
2018-07-10T09:19:26.803Z,25.77
2018-07-10T09:20:26.976Z,25.82
2018-07-10T09:21:27.145Z,26.09
2018-07-10T09:22:27.321Z,26.10
2018-07-10T09:23:27.502Z,25.91
2018-07-10T09:24:27.684Z,25.99
2018-07-10T09:25:27.862Z,25.94
2018-07-10T09:26:28.046Z,26.09
2018-07-10T09:27:28.212Z,26.17
2018-07-10T09:28:28.382Z,26.32
2018-07-10T09:29:28.597Z,26.21
2018-07-10T09:30:28.724Z,25.88
2018-07-10T09:31:28.906Z,25.72
2018-07-10T09:32:29.088Z,25.69
2018-07-10T09:33:29.291Z,25.79
2018-07-10T09:34:29.426Z,25.90
2018-07-10T09:35:29.607Z,25.97
2018-07-10T09:36:29.778Z,26.06
2018-07-10T09:37:29.954Z,26.29
2018-07-10T09:38:30.133Z,26.39
2018-07-10T09:39:30.317Z,26.55
2018-07-10T09:40:30.475Z,26.85
2018-07-10T09:41:30.648Z,26.92
2018-07-10T09:42:30.829Z,27.14
2018-07-10T09:43:31.011Z,27.24
2018-07-10T09:44:31.179Z,27.00
2018-07-10T09:45:31.359Z,27.29
2018-07-10T09:46:31.543Z,27.25
2018-07-10T09:47:31.715Z,27.40
2018-07-10T09:48:31.888Z,27.55
2018-07-10T09:49:32.069Z,27.32
2018-07-10T09:50:32.237Z,26.92
2018-07-10T09:51:32.406Z,26.52
2018-07-10T09:52:32.589Z,26.62
2018-07-10T09:53:32.761Z,26.77
2018-07-10T09:54:32.938Z,26.57
2018-07-10T09:55:33.117Z,26.70
2018-07-10T09:56:33.298Z,26.80
2018-07-10T09:57:33.470Z,26.69
2018-07-10T09:58:33.641Z,26.76
2018-07-10T09:59:33.814Z,26.33
2018-07-10T10:00:33.999Z,26.10
2018-07-10T10:01:34.176Z,25.95
2018-07-10T10:02:34.344Z,25.77
2018-07-10T10:03:34.517Z,25.79
2018-07-10T10:04:34.694Z,25.73
2018-07-10T10:05:34.873Z,25.47
2018-07-10T10:06:35.040Z,25.43
2018-07-10T10:07:35.211Z,25.21
2018-07-10T10:08:35.384Z,25.10
2018-07-10T10:09:35.562Z,25.18
2018-07-10T10:10:35.737Z,25.25
2018-07-10T10:11:35.914Z,25.18
2018-07-10T10:12:36.080Z,25.10
2018-07-10T10:13:36.253Z,25.27
2018-07-10T10:14:36.429Z,25.43
2018-07-10T10:15:36.594Z,25.52
2018-07-10T10:16:36.775Z,25.28
2018-07-10T10:17:36.953Z,25.69
2018-07-10T10:18:37.126Z,25.83
2018-07-10T10:19:37.295Z,25.73
2018-07-10T10:20:37.469Z,25.80
2018-07-10T10:21:37.651Z,25.87
2018-07-10T10:22:37.827Z,26.15
2018-07-10T10:23:38.004Z,26.48
2018-07-10T10:24:38.185Z,26.81
2018-07-10T10:25:38.375Z,27.39
2018-07-10T10:26:38.532Z,27.50
2018-07-10T10:27:38.713Z,27.65
2018-07-10T10:28:38.878Z,27.06
2018-07-10T10:29:39.805Z,26.62
2018-07-10T10:30:39.806Z,26.57
2018-07-10T10:31:39.389Z,26.60
2018-07-10T10:32:39.560Z,26.26
2018-07-10T10:33:39.745Z,26.07
2018-07-10T10:34:39.927Z,26.18
2018-07-10T10:35:40.124Z,26.29
2018-07-10T10:36:40.285Z,26.26
2018-07-10T10:37:40.467Z,26.45
2018-07-10T10:38:40.639Z,26.66
2018-07-10T10:39:40.817Z,26.57
2018-07-10T10:40:40.994Z,26.50
2018-07-10T10:41:41.176Z,26.05
2018-07-10T10:42:41.348Z,25.50
2018-07-10T10:43:41.516Z,25.52
2018-07-10T10:44:41.707Z,25.45
2018-07-10T10:45:41.871Z,25.61
2018-07-10T10:46:42.807Z,25.55
2018-07-10T10:47:42.247Z,25.36
2018-07-10T10:48:42.418Z,25.43
2018-07-10T10:49:42.594Z,25.62
2018-07-10T10:50:42.772Z,25.65
2018-07-10T10:51:42.952Z,25.72
2018-07-10T10:52:43.125Z,25.90
2018-07-10T10:53:43.297Z,26.02
2018-07-10T10:54:43.474Z,25.91
2018-07-10T10:55:43.652Z,25.65
2018-07-10T10:56:43.816Z,25.69
2018-07-10T10:57:44.008Z,25.61
2018-07-10T10:58:44.183Z,25.40
2018-07-10T10:59:44.368Z,25.39
2018-07-10T11:00:44.527Z,25.27
2018-07-10T11:01:44.706Z,25.35
2018-07-10T11:02:44.937Z,25.61
2018-07-10T11:03:45.053Z,25.38
2018-07-10T11:04:45.241Z,25.30
2018-07-10T11:05:45.404Z,25.14
2018-07-10T11:06:45.567Z,25.42
2018-07-10T11:07:45.754Z,25.60
2018-07-10T11:08:45.924Z,25.46
2018-07-10T11:09:46.101Z,25.14
2018-07-10T11:10:46.270Z,25.28
2018-07-10T11:11:46.433Z,25.69
2018-07-10T11:12:46.610Z,25.94
2018-07-10T11:13:46.779Z,26.09
2018-07-10T11:14:46.960Z,26.32
2018-07-10T11:15:47.142Z,26.23
2018-07-10T11:16:47.307Z,26.12
2018-07-10T11:17:47.486Z,26.21
2018-07-10T11:18:47.656Z,26.18
2018-07-10T11:19:47.829Z,26.32
2018-07-10T11:20:48.011Z,26.09
2018-07-10T11:21:48.179Z,25.85
2018-07-10T11:22:48.349Z,25.64
2018-07-10T11:23:48.530Z,25.73
2018-07-10T11:24:48.702Z,25.61
2018-07-10T11:25:48.878Z,25.57
2018-07-10T11:26:49.052Z,25.50
2018-07-10T11:27:49.217Z,25.43
2018-07-10T11:28:49.397Z,25.76
2018-07-10T11:29:49.579Z,25.64
2018-07-10T11:30:49.751Z,25.87
2018-07-10T11:31:49.928Z,25.72
2018-07-10T11:32:50.114Z,25.76
2018-07-10T11:33:50.313Z,25.52
2018-07-10T11:34:50.451Z,25.55
2018-07-10T11:35:50.718Z,25.57
2018-07-10T11:36:50.831Z,25.51
2018-07-10T11:37:51.008Z,25.42
2018-07-10T11:38:51.185Z,25.47
2018-07-10T11:39:51.354Z,25.15
2018-07-10T11:40:51.529Z,25.08
2018-07-10T11:41:51.715Z,25.33
2018-07-10T11:42:51.883Z,25.47
2018-07-10T11:43:52.062Z,25.65
2018-07-10T11:44:52.239Z,26.12
2018-07-10T11:45:52.415Z,26.17
2018-07-10T11:46:52.588Z,26.32
2018-07-10T11:47:52.764Z,26.32
2018-07-10T11:48:52.945Z,26.47
2018-07-10T11:49:53.117Z,26.87
2018-07-10T11:50:53.349Z,26.92
2018-07-10T11:51:53.462Z,26.87
2018-07-10T11:52:53.640Z,28.56
2018-07-10T11:53:53.815Z,28.27
2018-07-10T11:54:53.989Z,28.39
2018-07-10T11:55:54.161Z,28.59
2018-07-10T11:56:54.335Z,28.14
2018-07-10T11:57:54.515Z,27.67
2018-07-10T11:58:54.689Z,27.92
2018-07-10T11:59:54.874Z,27.32
2018-07-10T12:00:55.045Z,27.12
2018-07-10T12:01:55.217Z,27.79
2018-07-10T12:02:55.390Z,27.59
2018-07-10T12:03:55.560Z,27.46
2018-07-10T12:04:55.772Z,27.65
2018-07-10T12:05:55.915Z,27.49
2018-07-10T12:06:56.090Z,27.67
2018-07-10T12:07:56.269Z,27.40
2018-07-10T12:08:56.447Z,27.32
2018-07-10T12:09:56.619Z,27.57
2018-07-10T12:10:56.802Z,27.84
2018-07-10T12:11:56.977Z,27.87
2018-07-10T12:12:57.153Z,27.88
2018-07-10T12:13:57.327Z,27.88
2018-07-10T12:14:57.505Z,27.84
2018-07-10T12:15:57.678Z,27.78
2018-07-10T12:16:57.866Z,27.99
2018-07-10T12:17:58.827Z,28.07
2018-07-10T12:18:58.258Z,28.17
2018-07-10T12:19:58.434Z,27.88
2018-07-10T12:20:58.611Z,27.57
2018-07-10T12:21:58.783Z,27.44
2018-07-10T12:22:58.957Z,26.99
2018-07-10T12:23:59.174Z,27.03
2018-07-10T12:24:59.348Z,26.73
2018-07-10T12:25:59.531Z,26.75
2018-07-10T12:26:59.707Z,26.65
2018-07-10T12:27:59.942Z,26.54
2018-07-10T12:29:00.063Z,26.37
2018-07-10T12:30:00.235Z,26.12
2018-07-10T12:31:00.410Z,26.01
2018-07-10T12:32:00.587Z,25.80
2018-07-10T12:33:00.757Z,25.83
2018-07-10T12:34:00.929Z,25.91
2018-07-10T12:35:01.102Z,26.01
2018-07-10T12:36:01.430Z,25.72
2018-07-10T12:37:01.402Z,25.64
2018-07-10T12:38:01.573Z,25.50
2018-07-10T12:39:01.744Z,25.55
2018-07-10T12:40:01.959Z,25.51
2018-07-10T12:41:02.120Z,25.58
2018-07-10T12:42:02.291Z,25.33
2018-07-10T12:43:02.463Z,25.46
2018-07-10T12:44:02.645Z,25.52
2018-07-10T12:45:02.812Z,25.33
2018-07-10T12:46:03.074Z,25.24
2018-07-10T12:47:03.121Z,25.38
2018-07-10T12:48:03.312Z,25.27
2018-07-10T12:49:03.484Z,25.38
2018-07-10T12:50:03.656Z,25.06
2018-07-10T12:51:03.827Z,25.13
2018-07-10T12:52:04.002Z,24.95
2018-07-10T12:53:04.180Z,24.93
2018-07-10T12:54:04.353Z,24.91
2018-07-10T12:55:04.527Z,24.98
2018-07-10T12:56:04.723Z,24.77
2018-07-10T12:57:04.884Z,24.61
2018-07-10T12:58:05.070Z,24.49
2018-07-10T12:59:05.238Z,24.31
2018-07-10T13:00:05.403Z,24.09
2018-07-10T13:01:05.577Z,23.93
2018-07-10T13:02:05.759Z,23.83
2018-07-10T13:03:05.928Z,23.68
2018-07-10T13:04:06.104Z,23.88
2018-07-10T13:05:06.283Z,23.87
2018-07-10T13:06:06.454Z,23.84
2018-07-10T13:07:06.623Z,23.61
2018-07-10T13:08:06.801Z,23.58
2018-07-10T13:09:06.966Z,23.51
2018-07-10T13:10:07.140Z,23.36
2018-07-10T13:11:07.298Z,23.39
2018-07-10T13:12:07.508Z,23.28
2018-07-10T13:13:07.676Z,23.27
2018-07-10T13:14:07.846Z,23.23
2018-07-10T13:15:08.019Z,23.32
2018-07-10T13:16:08.201Z,23.20
2018-07-10T13:17:08.363Z,23.22
2018-07-10T13:18:08.543Z,23.38
2018-07-10T13:19:08.721Z,23.48
2018-07-10T13:20:08.894Z,23.53
2018-07-10T13:21:09.065Z,23.60
2018-07-10T13:22:09.254Z,23.61
2018-07-10T13:23:09.412Z,23.63
2018-07-10T13:24:09.586Z,23.72
2018-07-10T13:25:09.759Z,23.70
2018-07-10T13:26:09.938Z,23.79
2018-07-10T13:27:10.130Z,23.98
2018-07-10T13:28:10.288Z,23.95
2018-07-10T13:29:10.475Z,23.75
2018-07-10T13:30:10.639Z,23.83
2018-07-10T13:31:10.819Z,23.93
2018-07-10T13:32:10.994Z,24.10
2018-07-10T13:33:11.165Z,24.06
2018-07-10T13:34:11.342Z,23.98
2018-07-10T13:35:11.511Z,23.97
2018-07-10T13:36:11.696Z,24.05
2018-07-10T13:37:11.860Z,24.18
2018-07-10T13:38:12.027Z,24.27
2018-07-10T13:39:12.200Z,24.42
2018-07-10T13:40:12.375Z,24.47
2018-07-10T13:41:12.619Z,24.62
2018-07-10T13:42:12.773Z,24.71
2018-07-10T13:43:12.995Z,24.95
2018-07-10T13:44:13.120Z,25.06
2018-07-10T13:45:13.305Z,24.90
2018-07-10T13:46:13.470Z,24.65
2018-07-10T13:47:13.645Z,24.32
2018-07-10T13:48:13.823Z,24.39
2018-07-10T13:49:14.059Z,24.21
2018-07-10T13:50:14.181Z,24.22
2018-07-10T13:51:14.358Z,24.28
2018-07-10T13:52:14.544Z,24.22
2018-07-10T13:53:15.543Z,24.20
2018-07-10T13:54:14.845Z,24.06
2018-07-10T13:55:15.014Z,24.02
2018-07-10T13:56:15.185Z,23.93
2018-07-10T13:57:15.354Z,23.70
2018-07-10T13:58:15.535Z,23.63
2018-07-10T13:59:15.706Z,23.60
2018-07-10T14:00:15.903Z,23.57
2018-07-10T14:01:16.062Z,23.48
2018-07-10T14:02:16.235Z,23.50
2018-07-10T14:03:16.409Z,23.31
2018-07-10T14:04:16.605Z,23.17
2018-07-10T14:05:16.758Z,23.13
2018-07-10T14:06:16.928Z,22.97
2018-07-10T14:07:17.110Z,22.68
2018-07-10T14:08:17.282Z,22.68
2018-07-10T14:09:17.461Z,22.46
2018-07-10T14:10:17.637Z,22.52
2018-07-10T14:11:17.810Z,22.45
2018-07-10T14:12:18.042Z,22.54
2018-07-10T14:13:18.163Z,22.46
2018-07-10T14:14:18.336Z,22.28
2018-07-10T14:15:18.509Z,22.37
2018-07-10T14:16:18.679Z,22.43
2018-07-10T14:17:18.859Z,22.57
2018-07-10T14:18:20.016Z,22.62
2018-07-10T14:19:19.219Z,22.49
2018-07-10T14:20:19.412Z,22.49
2018-07-10T14:21:19.568Z,22.33
2018-07-10T14:22:19.775Z,22.39
2018-07-10T14:23:19.916Z,22.27
2018-07-10T14:24:20.091Z,22.47
2018-07-10T14:25:20.256Z,22.42
2018-07-10T14:26:20.423Z,22.51
2018-07-10T14:27:20.592Z,22.47
2018-07-10T14:28:20.771Z,22.35
2018-07-10T14:29:20.942Z,22.27
2018-07-10T14:30:21.121Z,22.14
2018-07-10T14:31:21.308Z,22.12
2018-07-10T14:32:21.473Z,22.12
2018-07-10T14:33:21.647Z,22.10
2018-07-10T14:34:21.817Z,22.02
2018-07-10T14:35:21.997Z,22.10
2018-07-10T14:36:22.859Z,21.91
2018-07-10T14:37:22.361Z,21.79
2018-07-10T14:38:22.528Z,21.83
2018-07-10T14:39:22.698Z,21.86
2018-07-10T14:40:22.870Z,21.77
2018-07-10T14:41:23.043Z,21.84
2018-07-10T14:42:23.212Z,21.77
2018-07-10T14:43:23.383Z,21.64
2018-07-10T14:44:23.574Z,21.49
2018-07-10T14:45:23.742Z,21.46
2018-07-10T14:46:23.914Z,21.44
2018-07-10T14:47:24.102Z,21.37
2018-07-10T14:48:24.257Z,21.31
2018-07-10T14:49:24.430Z,21.22
2018-07-10T14:50:24.605Z,21.31
2018-07-10T14:51:24.782Z,21.21
2018-07-10T14:52:24.958Z,21.04
2018-07-10T14:53:25.122Z,20.97
2018-07-10T14:54:25.284Z,20.74
2018-07-10T14:55:25.455Z,20.92
2018-07-10T14:56:25.636Z,20.89
2018-07-10T14:57:25.797Z,20.91
2018-07-10T14:58:25.968Z,20.76
2018-07-10T14:59:26.139Z,20.59
2018-07-10T15:00:26.310Z,20.69
2018-07-10T15:01:26.491Z,20.55
2018-07-10T15:02:26.641Z,20.72
2018-07-10T15:03:26.813Z,20.74
2018-07-10T15:04:26.991Z,20.87
2018-07-10T15:05:27.162Z,20.73
2018-07-10T15:06:27.358Z,20.76
2018-07-10T15:07:27.523Z,20.82
2018-07-10T15:08:27.690Z,20.72
2018-07-10T15:09:27.868Z,20.61
2018-07-10T15:10:28.041Z,20.58
2018-07-10T15:11:28.227Z,20.39
2018-07-10T15:12:28.400Z,20.47
2018-07-10T15:13:28.577Z,20.20
2018-07-10T15:14:28.790Z,20.16
2018-07-10T15:15:28.998Z,20.20
2018-07-10T15:16:29.090Z,20.20
2018-07-10T15:17:29.258Z,20.13
2018-07-10T15:18:29.433Z,20.13
2018-07-10T15:19:29.600Z,20.21
2018-07-10T15:20:29.776Z,20.29
2018-07-10T15:21:29.945Z,20.03
2018-07-10T15:22:30.115Z,20.03
2018-07-10T15:23:30.342Z,19.99
2018-07-10T15:24:30.478Z,20.20
2018-07-10T15:25:30.648Z,20.18
2018-07-10T15:26:30.818Z,20.17
2018-07-10T15:27:30.987Z,20.24
2018-07-10T15:28:31.162Z,20.24
2018-07-10T15:29:31.406Z,20.33
2018-07-10T15:30:31.460Z,20.23
2018-07-10T15:31:31.630Z,20.38
2018-07-10T15:32:31.797Z,20.52
2018-07-10T15:33:33.373Z,20.43
2018-07-10T15:34:32.146Z,20.54
2018-07-10T15:35:32.296Z,20.51
2018-07-10T15:36:32.461Z,20.58
2018-07-10T15:37:32.636Z,20.74
2018-07-10T15:38:32.802Z,20.84
2018-07-10T15:39:32.969Z,20.64
2018-07-10T15:40:33.138Z,20.54
2018-07-10T15:41:33.314Z,20.35
2018-07-10T15:42:33.481Z,20.20
2018-07-10T15:43:33.651Z,20.17
2018-07-10T15:44:33.821Z,20.14
2018-07-10T15:45:33.989Z,19.95
2018-07-10T15:46:34.158Z,19.98
2018-07-10T15:47:34.356Z,20.17
2018-07-10T15:48:34.496Z,20.26
2018-07-10T15:49:34.669Z,20.36
2018-07-10T15:50:34.844Z,20.29
2018-07-10T15:51:35.870Z,20.24
2018-07-10T15:52:35.175Z,20.14
2018-07-10T15:53:35.363Z,20.06
2018-07-10T15:54:35.544Z,19.86
2018-07-10T15:55:35.696Z,19.74
2018-07-10T15:56:35.863Z,19.48
2018-07-10T15:57:36.042Z,19.63
2018-07-10T15:58:36.233Z,19.69
2018-07-10T15:59:36.382Z,19.63
2018-07-10T16:00:36.606Z,19.65
2018-07-10T16:01:36.719Z,19.69
2018-07-10T16:02:36.889Z,19.87
2018-07-10T16:03:37.056Z,19.87
2018-07-10T16:04:37.239Z,20.03
2018-07-10T16:05:37.416Z,20.01
2018-07-10T16:06:37.596Z,20.10
2018-07-10T16:07:37.767Z,20.16
2018-07-10T16:08:37.934Z,20.17
2018-07-10T16:09:38.100Z,20.31
2018-07-10T16:10:38.270Z,20.20
2018-07-10T16:11:38.429Z,20.17
2018-07-10T16:12:38.598Z,20.24
2018-07-10T16:13:38.766Z,20.32
2018-07-10T16:14:38.934Z,20.43
2018-07-10T16:15:39.094Z,20.47
2018-07-10T16:16:39.278Z,20.36
2018-07-10T16:17:39.435Z,20.20
2018-07-10T16:18:39.607Z,20.10
2018-07-10T16:19:39.786Z,20.02
2018-07-10T16:20:39.956Z,19.84
2018-07-10T16:21:40.143Z,19.92
2018-07-10T16:22:40.318Z,19.96
2018-07-10T16:23:40.488Z,19.73
2018-07-10T16:24:40.653Z,19.48
2018-07-10T16:25:40.830Z,19.73
2018-07-10T16:26:40.987Z,19.66
2018-07-10T16:27:41.153Z,19.78
2018-07-10T16:28:41.335Z,19.74
2018-07-10T16:29:41.508Z,19.77
2018-07-10T16:30:41.689Z,19.69
2018-07-10T16:31:41.874Z,19.56
2018-07-10T16:32:42.030Z,19.65
2018-07-10T16:33:42.200Z,19.63
2018-07-10T16:34:42.367Z,19.68
2018-07-10T16:35:42.535Z,19.47
2018-07-10T16:36:42.707Z,19.58
2018-07-10T16:37:42.893Z,19.76
2018-07-10T16:38:43.056Z,19.71
2018-07-10T16:39:43.227Z,19.86
2018-07-10T16:40:43.398Z,19.68
2018-07-10T16:41:43.564Z,19.77
2018-07-10T16:42:43.739Z,19.69
2018-07-10T16:43:43.904Z,19.86
2018-07-10T16:44:44.109Z,19.83
2018-07-10T16:47:16.421Z,19.91
2018-07-10T16:48:16.649Z,19.87
2018-07-10T16:49:16.785Z,20.16
2018-07-10T16:50:16.964Z,20.14
2018-07-10T16:51:17.133Z,20.13
2018-07-10T16:52:17.302Z,20.16
2018-07-10T16:53:17.481Z,20.06
2018-07-10T16:54:17.650Z,20.05
2018-07-10T16:55:17.820Z,19.99
2018-07-10T16:56:17.985Z,19.95
2018-07-10T16:57:18.156Z,19.94
2018-07-10T16:58:18.324Z,19.95
2018-07-10T16:59:18.506Z,20.01
2018-07-10T17:00:18.675Z,19.99
2018-07-10T17:01:18.844Z,19.88
2018-07-10T17:02:19.011Z,19.81
2018-07-10T17:03:19.180Z,19.81
2018-07-10T17:04:19.349Z,19.96
2018-07-10T17:05:19.520Z,20.05
2018-07-10T17:06:19.687Z,19.94
2018-07-10T17:07:19.857Z,20.05
2018-07-10T17:08:20.022Z,20.08
2018-07-10T17:09:20.190Z,20.17
2018-07-10T17:10:20.368Z,20.20
2018-07-10T17:11:20.537Z,20.17
2018-07-10T17:12:20.714Z,20.36
2018-07-10T17:13:20.884Z,20.35
2018-07-10T17:14:21.045Z,20.17
2018-07-10T17:15:21.215Z,20.03
2018-07-10T17:16:21.387Z,20.10
2018-07-10T17:17:21.562Z,20.16
2018-07-10T17:18:21.731Z,20.01
2018-07-10T17:19:21.896Z,19.95
2018-07-10T17:20:22.066Z,19.83
2018-07-10T17:21:22.244Z,19.83
2018-07-10T17:22:22.414Z,19.78
2018-07-10T17:23:22.594Z,19.68
2018-07-10T17:24:22.751Z,19.77
2018-07-10T17:25:22.926Z,19.78
2018-07-10T17:26:23.095Z,19.81
2018-07-10T17:27:23.278Z,19.92
2018-07-10T17:28:23.444Z,19.96
2018-07-10T17:29:23.612Z,20.03
2018-07-10T17:30:23.790Z,20.16
2018-07-10T17:31:23.961Z,20.17
2018-07-10T17:32:24.143Z,20.26
2018-07-10T17:33:24.310Z,20.21
2018-07-10T17:34:24.477Z,20.29
2018-07-10T17:35:24.644Z,20.29
2018-07-10T17:36:24.819Z,20.35
2018-07-10T17:37:24.990Z,20.31
2018-07-10T17:38:25.156Z,20.39
2018-07-10T17:39:25.315Z,20.23
2018-07-10T17:40:25.488Z,20.05
2018-07-10T17:41:25.658Z,19.95
2018-07-10T17:42:25.839Z,19.91
2018-07-10T17:43:26.005Z,19.77
2018-07-10T17:44:26.170Z,19.71
2018-07-10T17:45:26.341Z,19.68
2018-07-10T17:46:26.513Z,19.69
2018-07-10T17:47:26.681Z,19.73
2018-07-10T17:48:26.850Z,19.81
2018-07-10T17:49:27.018Z,19.80
2018-07-10T17:50:27.187Z,19.80
2018-07-10T17:51:27.355Z,19.84
2018-07-10T17:52:27.529Z,19.80
2018-07-10T17:53:27.707Z,19.84
2018-07-10T17:54:28.011Z,19.77
2018-07-10T17:55:28.019Z,19.78
2018-07-10T17:56:28.187Z,19.65
2018-07-10T17:57:28.362Z,19.66
2018-07-10T17:58:28.534Z,19.83
2018-07-10T17:59:28.695Z,19.86
2018-07-10T18:00:28.862Z,19.84
2018-07-10T18:01:29.099Z,19.77
2018-07-10T18:02:29.215Z,19.59
2018-07-10T18:03:29.376Z,19.54
2018-07-10T18:04:29.540Z,19.69
2018-07-10T18:05:29.713Z,19.77
2018-07-10T18:06:29.877Z,19.76
2018-07-10T18:07:30.045Z,19.83
2018-07-10T18:08:30.208Z,19.91
2018-07-10T18:09:30.378Z,19.95
2018-07-10T18:10:30.547Z,19.96
2018-07-10T18:11:30.712Z,19.95
2018-07-10T18:12:30.888Z,20.02
2018-07-10T18:13:31.048Z,20.06
2018-07-10T18:14:31.219Z,20.11
2018-07-10T18:15:31.388Z,20.33
2018-07-10T18:16:31.681Z,20.36
2018-07-10T18:17:31.748Z,20.41
2018-07-10T18:18:31.925Z,20.61
2018-07-10T18:19:32.090Z,20.54
2018-07-10T18:20:32.275Z,20.57
2018-07-10T18:21:32.437Z,20.67
2018-07-10T18:22:32.671Z,20.69
2018-07-10T18:23:32.810Z,20.67
2018-07-10T18:24:32.980Z,20.80
2018-07-10T18:25:33.155Z,20.88
2018-07-10T18:26:33.324Z,20.82
2018-07-10T18:27:33.502Z,20.89
2018-07-10T18:28:33.688Z,20.98
2018-07-10T18:29:33.859Z,20.94
2018-07-10T18:30:34.029Z,20.97
2018-07-10T18:31:34.186Z,21.03
2018-07-10T18:32:34.365Z,21.01
2018-07-10T18:33:34.534Z,21.09
2018-07-10T18:34:34.705Z,21.09
2018-07-10T18:35:34.876Z,21.16
2018-07-10T18:36:35.082Z,21.07
2018-07-10T18:37:35.233Z,21.01
2018-07-10T18:38:35.400Z,20.82
2018-07-10T18:39:35.617Z,20.85
2018-07-10T18:40:35.742Z,20.64
2018-07-10T18:41:35.912Z,20.58
2018-07-10T18:42:36.087Z,20.54
2018-07-10T18:43:36.254Z,20.43
2018-07-10T18:44:36.418Z,20.48
2018-07-10T18:45:36.590Z,20.42
2018-07-10T18:46:36.758Z,20.39
2018-07-10T18:47:36.939Z,20.33
2018-07-10T18:48:37.156Z,20.28
2018-07-10T18:49:37.280Z,20.28
2018-07-10T18:50:37.436Z,20.26
2018-07-10T18:51:37.604Z,20.29
2018-07-10T18:52:37.780Z,20.31
2018-07-10T18:53:37.950Z,20.35
2018-07-10T18:54:38.128Z,20.13
2018-07-10T18:55:38.280Z,20.03
2018-07-10T18:56:38.454Z,19.96
2018-07-10T18:57:38.622Z,19.86
2018-07-10T18:58:38.796Z,19.71
2018-07-10T18:59:38.992Z,19.74
2018-07-10T19:00:39.155Z,19.69
2018-07-10T19:01:39.305Z,19.86
2018-07-10T19:02:39.470Z,19.84
2018-07-10T19:03:39.650Z,19.76
2018-07-10T19:04:39.802Z,19.80
2018-07-10T19:05:39.969Z,19.81
2018-07-10T19:06:40.136Z,19.91
2018-07-10T19:07:40.307Z,19.92
2018-07-10T19:08:40.477Z,20.03
2018-07-10T19:09:40.649Z,20.06
2018-07-10T19:10:40.870Z,20.17
2018-07-10T19:11:41.042Z,20.21
2018-07-10T19:12:41.154Z,20.26
2018-07-10T19:13:41.322Z,20.23
2018-07-10T19:14:41.487Z,20.36
2018-07-10T19:15:41.656Z,20.35
2018-07-10T19:16:41.828Z,20.31
2018-07-10T19:17:41.998Z,20.24
2018-07-10T19:18:42.166Z,20.35
2018-07-10T19:19:42.336Z,20.24
2018-07-10T19:20:42.509Z,20.33
2018-07-10T19:21:42.677Z,20.38
2018-07-10T19:22:42.942Z,20.35